Al Ain, UAE

8:43 AM GST on October 22, 2014 (GMT +0400)
Al Ain International | Change Station
CLOSE
Current Station
Airport
Location: Al Ain,
Elevation: 869 ft
Nearby Weather Stations

Elev 869 ft 24.26 °N, 55.61 °E | Updated 43 minutes ago

Clear
Clear
82 °F
Feels Like 82 °F
N
13
Wind Variable Wind from South

Today
High -- | Low -- °F
--% Chance of Precip.
Yesterday
High -- | Low -- °F
Precip. -- in
6:18 AM 5:45 PM
Waning Crescent, 3% visible
Pressure 30.04 in
Visibility -9999.0 miles
Clouds
Dew Point 50 °F
Humidity 32%
Rainfall 0.00 in
Snow Depth Not available.
UV Not available.
Pollen Not available.
Air Quality Not available.
Flu Activity Not available.
METAR OMAL 220400Z 17011KT CAVOK 28/10 Q1017 A3004 NOSIG

More Conditions Fewer Conditions

Pressure 30.04 in
Visibility -9999.0 miles
Clouds
Dew Point 50 °F
Humidity 32%
Rainfall 0.00 in
Snow Depth Not available.
UV Not available.
Pollen Not available.
Air Quality Not available.
Flu Activity Not available.
METAR OMAL 220400Z 17011KT CAVOK 28/10 Q1017 A3004 NOSIG

More Conditions Fewer Conditions

10-Day Weather Forecast

Almanac

Astronomy

Oct. 22, 2014 Rise Set
Actual Time 6:18 AM GST 5:45 PM GST
Civil Twilight 5:55 AM GST 6:08 PM GST
Nautical Twilight 5:28 AM GST 6:35 PM GST
Astronomical Twilight 5:02 AM GST 7:01 PM GST
Moon 4:47 AM GST 4:50 PM GST
Length of Visible Light 12h 13m
Length of Day
11h 26m
Tomorrow will be 1m 19s shorter.
Waning Crescent, 3% of the Moon is Illuminated
Today
Waning Crescent
Oct 23
New
Oct 30
First Quarter
Nov 6
Full
Nov 14
Last Quarter

Yesterday's Extremes

Country Highs Country Lows

Community

WunderPhotos

Upload Photos

1,763,882 photos uploaded!

Nearby

Snow Depth

Not available.

Earthquake Activity

City Distance Mag. Time & Date
No recent earthquake activity has been reported nearby.
Minimum magnitude displayed is 2.5.

Coastal Water Temperatures

Place Temperature
No Stations Reporting

Nearby Weather Stations